createdAt,value
2017-06-11T00:01:49.195Z,91.20
2017-06-11T00:04:16.803Z,91.40
2017-06-11T00:06:44.332Z,91.30
2017-06-11T00:09:11.877Z,91.40
2017-06-11T00:11:39.452Z,91.70
2017-06-11T00:14:07.005Z,91.90
2017-06-11T00:16:34.561Z,91.70
2017-06-11T00:19:02.136Z,92.20
2017-06-11T00:21:29.704Z,92.30
2017-06-11T00:23:57.264Z,92.20
2017-06-11T00:26:24.889Z,91.80
2017-06-11T00:28:52.433Z,92.10
2017-06-11T00:31:19.989Z,92.40
2017-06-11T00:33:47.557Z,93.00
2017-06-11T00:36:15.107Z,93.00
2017-06-11T00:38:42.660Z,93.30
2017-06-11T00:41:10.236Z,92.70
2017-06-11T00:43:38.753Z,92.40
2017-06-11T00:46:06.310Z,93.10
2017-06-11T00:48:33.915Z,93.70
2017-06-11T00:51:01.469Z,93.50
2017-06-11T00:53:29.020Z,93.30
2017-06-11T00:55:56.604Z,93.80
2017-06-11T00:58:24.162Z,93.70
2017-06-11T01:00:52.104Z,93.80
2017-06-11T01:03:19.686Z,93.80
2017-06-11T01:05:47.229Z,93.80
2017-06-11T01:08:14.789Z,94.00
2017-06-11T01:10:42.356Z,94.80
2017-06-11T01:13:09.912Z,95.10
2017-06-11T01:15:37.479Z,95.00
2017-06-11T01:18:05.109Z,95.00
2017-06-11T01:20:32.665Z,95.60
2017-06-11T01:23:00.235Z,95.10
2017-06-11T01:25:27.805Z,94.90
2017-06-11T01:27:55.358Z,95.10
2017-06-11T01:30:22.917Z,95.80
2017-06-11T01:32:50.484Z,95.10
2017-06-11T01:35:18.038Z,95.10
2017-06-11T01:37:45.606Z,95.40
2017-06-11T01:40:13.200Z,94.70
2017-06-11T01:42:41.152Z,94.90
2017-06-11T01:45:08.704Z,94.90
2017-06-11T01:47:36.286Z,94.20
2017-06-11T01:50:03.844Z,94.60
2017-06-11T01:52:31.393Z,95.00
2017-06-11T01:54:58.969Z,94.90
2017-06-11T01:57:26.524Z,95.40
2017-06-11T01:59:54.081Z,95.00
2017-06-11T02:02:21.648Z,95.30
2017-06-11T02:04:49.204Z,95.60
2017-06-11T02:07:16.753Z,95.70
2017-06-11T02:09:44.345Z,95.80
2017-06-11T02:12:11.901Z,96.10
2017-06-11T02:14:39.463Z,95.80
2017-06-11T02:17:07.073Z,95.70
2017-06-11T02:19:34.624Z,96.10
2017-06-11T02:22:02.176Z,96.40
2017-06-11T02:24:29.753Z,96.50
2017-06-11T02:26:57.313Z,96.90
2017-06-11T02:29:24.865Z,97.10
2017-06-11T02:31:52.492Z,97.10
2017-06-11T02:34:20.065Z,96.80
2017-06-11T02:36:47.624Z,97.40
2017-06-11T02:39:15.195Z,97.00
2017-06-11T02:41:42.756Z,97.10
2017-06-11T02:44:10.309Z,97.60
2017-06-11T02:46:37.885Z,98.40
2017-06-11T02:49:05.448Z,98.40
2017-06-11T02:51:33.025Z,98.40
2017-06-11T02:54:00.600Z,98.20
2017-06-11T02:56:28.157Z,98.40
2017-06-11T02:58:55.712Z,98.30
2017-06-11T03:01:23.292Z,97.90
2017-06-11T03:03:50.837Z,98.10
2017-06-11T03:06:18.391Z,97.60
2017-06-11T03:08:45.988Z,97.80
2017-06-11T03:11:13.540Z,97.70
2017-06-11T03:13:41.105Z,98.00
2017-06-11T03:16:08.681Z,98.20
2017-06-11T03:18:36.245Z,97.80
2017-06-11T03:21:03.816Z,97.80
2017-06-11T03:23:31.802Z,98.00
2017-06-11T03:25:59.364Z,98.00
2017-06-11T03:28:26.923Z,98.10
2017-06-11T03:30:54.533Z,98.90
2017-06-11T03:33:22.097Z,99.00
2017-06-11T03:35:49.647Z,98.90
2017-06-11T03:38:17.220Z,99.00
2017-06-11T03:40:44.780Z,98.90
2017-06-11T03:43:12.328Z,98.90
2017-06-11T03:45:39.904Z,99.00
2017-06-11T03:48:07.465Z,99.30
2017-06-11T03:50:35.023Z,99.10
2017-06-11T03:53:02.609Z,98.90
2017-06-11T03:55:30.165Z,98.90
2017-06-11T03:57:57.721Z,98.70
2017-06-11T04:00:25.300Z,98.80
2017-06-11T04:02:53.257Z,98.60
2017-06-11T04:05:20.818Z,98.60
2017-06-11T04:07:48.388Z,98.30
2017-06-11T04:10:15.944Z,98.50
2017-06-11T04:12:43.496Z,98.50
2017-06-11T04:15:11.097Z,98.60
2017-06-11T04:17:38.654Z,97.90
2017-06-11T04:20:06.214Z,97.30
2017-06-11T04:22:34.188Z,96.20
2017-06-11T04:25:01.744Z,96.20
2017-06-11T04:27:29.316Z,95.50
2017-06-11T04:29:56.884Z,95.90
2017-06-11T04:32:24.441Z,95.70
2017-06-11T04:34:51.991Z,94.40
2017-06-11T04:37:19.572Z,93.90
2017-06-11T04:39:47.126Z,93.00
2017-06-11T04:42:14.681Z,92.90
2017-06-11T04:44:42.256Z,92.90
2017-06-11T04:47:09.812Z,93.80
2017-06-11T04:49:37.437Z,93.00
2017-06-11T04:52:05.008Z,92.50
2017-06-11T04:54:32.963Z,92.50
2017-06-11T04:57:00.516Z,92.50
2017-06-11T04:59:28.097Z,92.30
2017-06-11T05:01:55.661Z,92.20
2017-06-11T05:04:23.609Z,91.70
2017-06-11T05:06:51.185Z,91.70
2017-06-11T05:09:18.736Z,91.10
2017-06-11T05:11:46.298Z,90.80
2017-06-11T05:14:13.872Z,90.30
2017-06-11T05:16:41.826Z,89.50
2017-06-11T05:19:09.383Z,89.50
2017-06-11T05:21:36.952Z,89.80
2017-06-11T05:24:04.500Z,89.00
2017-06-11T05:26:32.045Z,88.20
2017-06-11T05:28:59.612Z,88.20
2017-06-11T05:31:27.170Z,87.60
2017-06-11T05:33:54.715Z,87.40
2017-06-11T05:36:22.288Z,87.10
2017-06-11T05:38:49.840Z,86.30
2017-06-11T05:41:17.413Z,86.70
2017-06-11T05:43:44.986Z,86.90
2017-06-11T05:46:12.536Z,86.50
2017-06-11T05:48:40.081Z,85.80
2017-06-11T05:51:07.652Z,85.40
2017-06-11T05:53:35.206Z,85.60
2017-06-11T05:56:02.757Z,83.60
2017-06-11T05:58:30.444Z,83.30
2017-06-11T06:00:57.992Z,83.10
2017-06-11T06:03:25.541Z,82.80
2017-06-11T06:05:53.112Z,83.20
2017-06-11T06:08:20.668Z,82.30
2017-06-11T06:10:48.220Z,81.90
2017-06-11T06:13:15.796Z,82.30
2017-06-11T06:15:43.332Z,81.50
2017-06-11T06:18:10.885Z,80.70
2017-06-11T06:20:38.852Z,79.10
2017-06-11T06:23:06.416Z,79.10
2017-06-11T06:25:33.964Z,79.30
2017-06-11T06:28:01.552Z,79.40
2017-06-11T06:30:29.096Z,79.40
2017-06-11T06:32:57.049Z,78.50
2017-06-11T06:35:24.627Z,78.50
2017-06-11T06:37:52.189Z,78.20
2017-06-11T06:40:19.749Z,78.70
2017-06-11T06:42:47.324Z,78.20
2017-06-11T06:45:14.872Z,77.40
2017-06-11T06:47:42.428Z,78.30
2017-06-11T06:50:10.453Z,76.30
2017-06-11T06:52:38.000Z,76.30
2017-06-11T06:55:05.558Z,76.80
2017-06-11T06:57:33.123Z,76.60
2017-06-11T07:00:00.676Z,76.10
2017-06-11T07:02:28.239Z,76.00
2017-06-11T07:04:55.797Z,75.60
2017-06-11T07:07:23.361Z,75.10
2017-06-11T07:09:50.924Z,74.40
2017-06-11T07:12:18.505Z,72.50
2017-06-11T07:14:46.056Z,72.20
2017-06-11T07:17:13.613Z,71.70
2017-06-11T07:19:41.177Z,72.30
2017-06-11T07:22:08.721Z,72.20
2017-06-11T07:24:36.264Z,72.40
2017-06-11T07:27:03.833Z,74.20
2017-06-11T07:29:31.377Z,72.10
2017-06-11T07:31:59.316Z,71.60
2017-06-11T07:34:26.886Z,71.60
2017-06-11T07:36:54.436Z,71.10
2017-06-11T07:39:21.985Z,68.80
2017-06-11T07:41:49.556Z,69.50
2017-06-11T07:44:17.124Z,68.20
2017-06-11T07:46:44.665Z,67.20
2017-06-11T07:49:12.237Z,67.30
2017-06-11T07:51:39.778Z,67.20
2017-06-11T07:54:07.324Z,66.60
2017-06-11T07:56:34.889Z,67.10
2017-06-11T07:59:02.432Z,65.60
2017-06-11T08:01:29.988Z,64.60
2017-06-11T08:03:57.557Z,63.30
2017-06-11T08:06:25.104Z,64.10
2017-06-11T08:08:52.657Z,64.60
2017-06-11T08:11:20.636Z,62.70
2017-06-11T08:13:48.189Z,62.70
2017-06-11T08:16:16.124Z,63.00
2017-06-11T08:18:43.684Z,62.90
2017-06-11T08:21:11.231Z,62.50
2017-06-11T08:23:38.769Z,62.10
2017-06-11T08:26:06.341Z,62.10
2017-06-11T08:28:33.897Z,60.70
2017-06-11T08:31:01.444Z,60.70
2017-06-11T08:33:29.016Z,62.30
2017-06-11T08:35:56.585Z,61.50
2017-06-11T08:38:24.132Z,61.40
2017-06-11T08:40:51.685Z,61.90
2017-06-11T08:43:19.257Z,60.80
2017-06-11T08:45:46.801Z,62.00
2017-06-11T08:48:14.344Z,61.50
2017-06-11T08:50:42.315Z,59.50
2017-06-11T08:53:09.860Z,59.50
2017-06-11T08:55:37.419Z,59.10
2017-06-11T08:58:04.975Z,59.50
2017-06-11T09:00:32.530Z,60.50
2017-06-11T09:03:00.059Z,60.20
2017-06-11T09:05:27.634Z,59.10
2017-06-11T09:07:55.185Z,60.10
2017-06-11T09:10:22.739Z,60.30
2017-06-11T09:12:50.301Z,61.80
2017-06-11T09:15:17.849Z,62.20
2017-06-11T09:17:45.392Z,60.40
2017-06-11T09:20:12.960Z,59.90
2017-06-11T09:22:40.517Z,59.40
2017-06-11T09:25:08.065Z,59.50
2017-06-11T09:27:36.037Z,58.40
2017-06-11T09:30:03.985Z,59.30
2017-06-11T09:32:31.537Z,59.30
2017-06-11T09:34:59.104Z,59.20
2017-06-11T09:37:26.644Z,58.90
2017-06-11T09:39:54.194Z,59.00
2017-06-11T09:42:21.751Z,57.60
2017-06-11T09:44:49.297Z,59.10
2017-06-11T09:47:16.840Z,57.40
2017-06-11T09:49:44.408Z,58.70
2017-06-11T09:52:11.951Z,59.60
2017-06-11T09:54:39.501Z,57.40
2017-06-11T09:57:07.077Z,57.50
2017-06-11T09:59:35.013Z,56.70
2017-06-11T10:02:02.547Z,56.70
2017-06-11T10:04:30.121Z,57.00
2017-06-11T10:06:57.660Z,57.60
2017-06-11T10:09:25.209Z,59.30
2017-06-11T10:11:52.784Z,56.70
2017-06-11T10:14:20.328Z,57.90
2017-06-11T10:16:47.876Z,55.70
2017-06-11T10:19:15.444Z,56.20
2017-06-11T10:21:42.997Z,55.10
2017-06-11T10:24:10.540Z,56.40
2017-06-11T10:26:38.248Z,54.60
2017-06-11T10:29:05.789Z,54.80
2017-06-11T10:31:33.343Z,55.10
2017-06-11T10:34:00.909Z,56.00
2017-06-11T10:36:28.457Z,53.80
2017-06-11T10:38:56.000Z,53.50
2017-06-11T10:41:23.581Z,53.30
2017-06-11T10:43:51.521Z,52.30
2017-06-11T10:46:19.061Z,52.40
2017-06-11T10:48:46.645Z,53.30
2017-06-11T10:51:14.198Z,52.10
2017-06-11T10:53:41.736Z,51.30
2017-06-11T10:56:09.300Z,51.20
2017-06-11T10:58:36.844Z,51.00
2017-06-11T11:01:04.393Z,50.70
2017-06-11T11:03:31.955Z,49.80
2017-06-11T11:05:59.500Z,50.80
2017-06-11T11:08:27.444Z,50.50
2017-06-11T11:10:55.013Z,50.50
2017-06-11T11:13:22.557Z,50.70
2017-06-11T11:15:50.109Z,52.00
2017-06-11T11:18:17.675Z,51.40
2017-06-11T11:20:45.227Z,53.60
2017-06-11T11:23:13.240Z,52.80
2017-06-11T11:25:41.217Z,54.50
2017-06-11T11:28:08.760Z,54.40
2017-06-11T11:30:36.305Z,54.30
2017-06-11T11:33:03.875Z,50.80
2017-06-11T11:35:31.423Z,51.20
2017-06-11T11:37:58.976Z,50.50
2017-06-11T11:40:26.545Z,50.40
2017-06-11T11:42:54.089Z,52.50
2017-06-11T11:45:21.650Z,50.70
2017-06-11T11:47:49.221Z,50.60
2017-06-11T11:50:16.768Z,50.50
2017-06-11T11:52:44.311Z,52.30
2017-06-11T11:55:11.880Z,50.50
2017-06-11T11:57:39.419Z,52.90
2017-06-11T12:00:06.972Z,50.70
2017-06-11T12:02:34.545Z,52.10
2017-06-11T12:05:02.100Z,50.90
2017-06-11T12:07:29.640Z,52.40
2017-06-11T12:09:57.216Z,53.50
2017-06-11T12:12:25.164Z,52.10
2017-06-11T12:14:52.713Z,52.10
2017-06-11T12:17:20.290Z,51.40
2017-06-11T12:19:47.841Z,51.60
2017-06-11T12:22:15.373Z,52.40
2017-06-11T12:24:42.944Z,51.20
2017-06-11T12:27:10.494Z,49.70
2017-06-11T12:29:38.036Z,50.30
2017-06-11T12:32:05.953Z,49.70
2017-06-11T12:34:33.492Z,50.20
2017-06-11T12:37:01.035Z,50.10
2017-06-11T12:39:28.606Z,51.00
2017-06-11T12:41:56.150Z,49.50
2017-06-11T12:44:23.692Z,50.40
2017-06-11T12:46:51.256Z,51.30
2017-06-11T12:49:18.804Z,49.30
2017-06-11T12:51:46.736Z,48.40
2017-06-11T12:54:14.312Z,48.40
2017-06-11T12:56:41.876Z,48.70
2017-06-11T12:59:09.426Z,49.40
2017-06-11T13:01:36.992Z,48.60
2017-06-11T13:04:04.542Z,48.60
2017-06-11T13:06:32.080Z,48.30
2017-06-11T13:09:00.029Z,48.80
2017-06-11T13:11:27.576Z,48.90
2017-06-11T13:13:55.130Z,49.00
2017-06-11T13:16:22.699Z,50.00
2017-06-11T13:18:50.256Z,48.20
2017-06-11T13:21:17.797Z,48.20
2017-06-11T13:23:45.369Z,48.30
2017-06-11T13:26:13.312Z,48.80
2017-06-11T13:28:40.854Z,48.80
2017-06-11T13:31:08.420Z,50.20
2017-06-11T13:33:35.965Z,49.20
2017-06-11T13:36:03.507Z,50.60
2017-06-11T13:38:31.080Z,47.80
2017-06-11T13:40:58.619Z,47.50
2017-06-11T13:43:26.169Z,48.30
2017-06-11T13:45:54.127Z,47.00
2017-06-11T13:48:21.667Z,47.00
2017-06-11T13:50:49.225Z,47.80
2017-06-11T13:53:16.797Z,47.40
2017-06-11T13:55:44.349Z,47.60
2017-06-11T13:58:11.894Z,47.90
2017-06-11T14:00:39.465Z,46.60
2017-06-11T14:03:07.021Z,46.80
2017-06-11T14:05:34.571Z,45.90
2017-06-11T14:08:02.133Z,47.30
2017-06-11T14:10:29.680Z,47.00
2017-06-11T14:12:57.219Z,46.00
2017-06-11T14:15:24.788Z,46.40
2017-06-11T14:17:52.334Z,45.10
2017-06-11T14:20:19.876Z,45.90
2017-06-11T14:22:47.852Z,46.30
2017-06-11T14:25:15.800Z,46.20
2017-06-11T14:27:43.343Z,46.20
2017-06-11T14:30:16.453Z,45.60
2017-06-11T14:32:43.996Z,45.70
2017-06-11T14:35:11.545Z,44.70
2017-06-11T14:37:39.112Z,46.30
2017-06-11T14:40:06.662Z,47.30
2017-06-11T14:42:34.201Z,46.30
2017-06-11T14:45:01.781Z,44.80
2017-06-11T14:47:29.337Z,42.80
2017-06-11T14:49:56.885Z,44.10
2017-06-11T14:52:24.457Z,44.40
2017-06-11T14:54:52.004Z,44.00
2017-06-11T14:57:19.557Z,44.20
2017-06-11T14:59:47.124Z,44.70
2017-06-11T15:02:14.668Z,44.90
2017-06-11T15:04:42.622Z,46.40
2017-06-11T15:07:10.196Z,46.40
2017-06-11T15:09:37.740Z,45.20
2017-06-11T15:12:05.285Z,45.60
2017-06-11T15:14:32.855Z,46.40
2017-06-11T15:17:00.404Z,46.30
2017-06-11T15:19:27.956Z,47.10
2017-06-11T15:21:55.529Z,46.30
2017-06-11T15:24:23.038Z,46.20
2017-06-11T15:26:50.625Z,47.70
2017-06-11T15:29:18.200Z,46.90
2017-06-11T15:31:45.768Z,44.30
2017-06-11T15:34:13.312Z,44.60
2017-06-11T15:36:40.944Z,45.30
2017-06-11T15:39:08.491Z,45.50
2017-06-11T15:41:36.040Z,47.30
2017-06-11T15:44:03.625Z,48.10
2017-06-11T15:46:31.669Z,44.10
2017-06-11T15:48:59.216Z,44.10
2017-06-11T15:51:26.911Z,43.20
2017-06-11T15:53:54.452Z,44.70
2017-06-11T15:56:22.004Z,46.40
2017-06-11T15:58:49.597Z,45.60
2017-06-11T16:01:17.145Z,47.50
2017-06-11T16:03:44.736Z,48.00
2017-06-11T16:06:13.170Z,50.90
2017-06-11T16:08:40.729Z,50.70
2017-06-11T16:11:08.277Z,51.10
2017-06-11T16:13:35.906Z,51.10
2017-06-11T16:16:03.460Z,50.40
2017-06-11T16:18:31.012Z,50.10
2017-06-11T16:20:58.601Z,52.30
2017-06-11T16:23:26.156Z,53.30
2017-06-11T16:25:53.736Z,52.40
2017-06-11T16:28:21.296Z,50.10
2017-06-11T16:30:48.857Z,48.70
2017-06-11T16:33:16.400Z,48.90
2017-06-11T16:35:43.984Z,50.10
2017-06-11T16:38:11.529Z,50.40
2017-06-11T16:40:39.114Z,50.90
2017-06-11T16:43:06.673Z,50.20
2017-06-11T16:45:34.219Z,53.30
2017-06-11T16:48:01.795Z,54.80
2017-06-11T16:50:29.340Z,52.00
2017-06-11T16:52:56.890Z,50.20
2017-06-11T16:55:24.473Z,51.20
2017-06-11T16:57:52.020Z,51.00
2017-06-11T17:00:19.580Z,52.10
2017-06-11T17:02:47.154Z,54.00
2017-06-11T17:05:14.709Z,52.10
2017-06-11T17:07:42.272Z,51.90
2017-06-11T17:10:09.863Z,53.00
2017-06-11T17:12:37.409Z,54.40
2017-06-11T17:15:04.981Z,55.60
2017-06-11T17:17:32.565Z,56.60
2017-06-11T17:20:00.113Z,57.10
2017-06-11T17:22:27.675Z,57.50
2017-06-11T17:24:55.229Z,57.50
2017-06-11T17:27:22.776Z,58.00
2017-06-11T17:29:50.346Z,56.70
2017-06-11T17:32:17.897Z,58.80
2017-06-11T17:34:45.450Z,58.80
2017-06-11T17:37:13.017Z,58.50
2017-06-11T17:39:40.564Z,55.90
2017-06-11T17:42:08.124Z,57.00
2017-06-11T17:44:35.701Z,56.60
2017-06-11T17:47:03.248Z,56.80
2017-06-11T17:49:30.797Z,57.80
2017-06-11T17:51:58.374Z,57.50
2017-06-11T17:54:25.911Z,58.10
2017-06-11T17:56:53.457Z,59.10
2017-06-11T17:59:21.037Z,58.60
2017-06-11T18:01:48.579Z,58.80
2017-06-11T18:04:16.132Z,60.30
2017-06-11T18:06:43.708Z,60.00
2017-06-11T18:09:11.252Z,60.10
2017-06-11T18:11:38.813Z,59.30
2017-06-11T18:14:06.394Z,61.30
2017-06-11T18:16:33.994Z,61.50
2017-06-11T18:19:01.568Z,61.50
2017-06-11T18:21:29.203Z,61.80
2017-06-11T18:23:57.139Z,61.20
2017-06-11T18:26:25.112Z,62.40
2017-06-11T18:28:53.403Z,62.20
2017-06-11T18:31:22.179Z,61.90
2017-06-11T18:33:50.589Z,62.00
2017-06-11T18:36:19.094Z,63.10
2017-06-11T18:38:47.678Z,63.20
2017-06-11T18:41:16.343Z,63.10
2017-06-11T18:43:45.373Z,62.80
2017-06-11T18:46:14.008Z,62.80
2017-06-11T18:48:42.540Z,62.90
2017-06-11T18:51:12.047Z,63.30
2017-06-11T18:53:40.700Z,64.20
2017-06-11T18:56:09.212Z,64.40
2017-06-11T18:58:37.759Z,64.40
2017-06-11T19:01:06.407Z,65.00
2017-06-11T19:03:34.949Z,64.80
2017-06-11T19:06:03.508Z,64.80
2017-06-11T19:08:32.106Z,65.00
2017-06-11T19:11:00.649Z,65.10
2017-06-11T19:13:29.221Z,65.30
2017-06-11T19:15:57.890Z,66.20
2017-06-11T19:18:27.459Z,66.20
2017-06-11T19:20:56.873Z,66.20
2017-06-11T19:23:25.524Z,66.40
2017-06-11T19:25:54.099Z,65.20
2017-06-11T19:28:22.646Z,65.40
2017-06-11T19:30:51.300Z,64.80
2017-06-11T19:33:20.225Z,67.20
2017-06-11T19:35:48.945Z,67.20
2017-06-11T19:38:17.742Z,66.90
2017-06-11T19:40:46.295Z,67.40
2017-06-11T19:43:14.881Z,67.90
2017-06-11T19:45:43.578Z,68.10
2017-06-11T19:48:12.125Z,67.70
2017-06-11T19:50:40.687Z,68.10
2017-06-11T19:53:09.354Z,68.50
2017-06-11T19:55:37.924Z,68.80
2017-06-11T19:58:06.502Z,68.80
2017-06-11T20:00:35.177Z,69.60
2017-06-11T20:03:03.748Z,69.70
2017-06-11T20:05:32.337Z,70.20
2017-06-11T20:08:01.931Z,68.30
2017-06-11T20:10:30.487Z,67.30
2017-06-11T20:12:59.734Z,67.90
2017-06-11T20:15:28.433Z,67.10
2017-06-11T20:17:56.941Z,66.60
2017-06-11T20:20:25.500Z,66.50
2017-06-11T20:22:54.140Z,66.50
2017-06-11T20:25:22.748Z,66.60
2017-06-11T20:27:51.360Z,66.70
2017-06-11T20:30:20.027Z,67.40
2017-06-11T20:32:48.751Z,67.50
2017-06-11T20:35:17.278Z,68.30
2017-06-11T20:37:45.983Z,68.30
2017-06-11T20:40:14.672Z,68.50
2017-06-11T20:42:43.255Z,69.50
2017-06-11T20:45:11.954Z,68.80
2017-06-11T20:47:40.532Z,69.10
2017-06-11T20:50:09.135Z,70.20
2017-06-11T20:52:37.804Z,69.80
2017-06-11T20:55:06.395Z,70.30
2017-06-11T20:57:34.982Z,70.50
2017-06-11T21:00:03.653Z,70.60
2017-06-11T21:02:32.203Z,70.90
2017-06-11T21:05:00.736Z,70.20
2017-06-11T21:07:29.363Z,70.40
2017-06-11T21:09:57.865Z,69.90
2017-06-11T21:12:26.405Z,70.00
2017-06-11T21:14:55.056Z,69.70
2017-06-11T21:17:24.128Z,70.30
2017-06-11T21:19:52.699Z,70.30
2017-06-11T21:22:21.342Z,71.10
2017-06-11T21:24:49.885Z,71.60
2017-06-11T21:27:18.401Z,72.20
2017-06-11T21:29:46.983Z,72.40
2017-06-11T21:32:15.481Z,73.20
2017-06-11T21:34:43.737Z,73.40
2017-06-11T21:37:11.775Z,73.20
2017-06-11T21:39:39.502Z,74.00
2017-06-11T21:42:07.100Z,73.50
2017-06-11T21:44:34.681Z,74.60
2017-06-11T21:47:02.242Z,73.80
2017-06-11T21:49:29.822Z,74.60
2017-06-11T21:51:57.405Z,74.50
2017-06-11T21:54:24.956Z,75.80
2017-06-11T21:56:52.515Z,73.70
2017-06-11T21:59:20.088Z,73.50
2017-06-11T22:01:47.642Z,73.70
2017-06-11T22:04:15.195Z,73.40
2017-06-11T22:06:42.852Z,72.30
2017-06-11T22:09:10.400Z,72.10
2017-06-11T22:11:37.973Z,72.50
2017-06-11T22:14:05.588Z,72.30
2017-06-11T22:16:33.161Z,72.80
2017-06-11T22:19:00.724Z,72.70
2017-06-11T22:21:28.701Z,73.60
2017-06-11T22:23:56.618Z,74.20
2017-06-11T22:26:24.232Z,74.20
2017-06-11T22:28:51.829Z,74.00
2017-06-11T22:31:19.375Z,74.10
2017-06-11T22:33:46.932Z,74.20
2017-06-11T22:36:14.509Z,74.20
2017-06-11T22:38:42.069Z,74.20
2017-06-11T22:41:09.633Z,74.10
2017-06-11T22:43:37.221Z,75.30
2017-06-11T22:46:04.764Z,76.00
2017-06-11T22:48:32.307Z,75.90
2017-06-11T22:50:59.888Z,76.70
2017-06-11T22:53:27.431Z,76.80
2017-06-11T22:55:54.989Z,76.30
2017-06-11T22:58:22.571Z,76.30
2017-06-11T23:00:50.137Z,76.50
2017-06-11T23:03:17.688Z,76.80
2017-06-11T23:05:45.260Z,77.50
2017-06-11T23:08:12.818Z,76.80
2017-06-11T23:10:40.369Z,76.70
2017-06-11T23:13:07.931Z,76.40
2017-06-11T23:15:35.489Z,76.20
2017-06-11T23:18:03.048Z,77.00
2017-06-11T23:20:30.629Z,78.60
2017-06-11T23:22:58.186Z,77.10
2017-06-11T23:25:25.761Z,77.20
2017-06-11T23:27:53.343Z,78.00
2017-06-11T23:30:21.291Z,78.50
2017-06-11T23:32:48.842Z,78.50
2017-06-11T23:35:16.424Z,79.20
2017-06-11T23:37:43.969Z,79.10
2017-06-11T23:40:11.525Z,78.60
2017-06-11T23:42:39.604Z,78.70
2017-06-11T23:45:07.148Z,79.30
2017-06-11T23:47:34.697Z,79.50
2017-06-11T23:50:02.297Z,79.60
2017-06-11T23:52:29.848Z,79.50
2017-06-11T23:54:57.399Z,79.60
2017-06-11T23:57:24.975Z,80.70
2017-06-11T23:59:52.529Z,80.80
